sensor_id;sensor_type;location;lat;lon;timestamp;temperature;humidity
1888;DHT22;944;51.574;6.980;2023-04-20T00:02:00;7.90;99.90
1888;DHT22;944;51.574;6.980;2023-04-20T00:04:29;8.00;99.90
1888;DHT22;944;51.574;6.980;2023-04-20T00:06:57;7.80;99.90
1888;DHT22;944;51.574;6.980;2023-04-20T00:09:27;7.90;99.90
1888;DHT22;944;51.574;6.980;2023-04-20T00:11:54;8.00;99.90
1888;DHT22;944;51.574;6.980;2023-04-20T00:14:21;7.90;99.90
1888;DHT22;944;51.574;6.980;2023-04-20T00:16:48;7.90;99.90
1888;DHT22;944;51.574;6.980;2023-04-20T00:19:15;7.90;99.90
1888;DHT22;944;51.574;6.980;2023-04-20T00:21:44;7.90;99.90
1888;DHT22;944;51.574;6.980;2023-04-20T00:24:11;7.90;99.90
1888;DHT22;944;51.574;6.980;2023-04-20T00:26:38;7.80;99.90
1888;DHT22;944;51.574;6.980;2023-04-20T00:29:05;7.80;99.90
1888;DHT22;944;51.574;6.980;2023-04-20T00:31:32;7.80;99.90
1888;DHT22;944;51.574;6.980;2023-04-20T00:34:02;7.70;99.90
1888;DHT22;944;51.574;6.980;2023-04-20T00:36:29;7.60;99.90
1888;DHT22;944;51.574;6.980;2023-04-20T00:39:02;7.60;99.90
1888;DHT22;944;51.574;6.980;2023-04-20T00:41:30;7.60;99.90
1888;DHT22;944;51.574;6.980;2023-04-20T00:43:57;7.50;99.90
1888;DHT22;944;51.574;6.980;2023-04-20T00:46:25;7.60;99.90
1888;DHT22;944;51.574;6.980;2023-04-20T00:48:53;7.60;99.90
1888;DHT22;944;51.574;6.980;2023-04-20T00:51:21;7.60;99.90
1888;DHT22;944;51.574;6.980;2023-04-20T00:53:48;7.60;99.90
1888;DHT22;944;51.574;6.980;2023-04-20T00:56:22;7.70;99.90
1888;DHT22;944;51.574;6.980;2023-04-20T00:58:49;7.70;99.90
1888;DHT22;944;51.574;6.980;2023-04-20T01:01:16;7.70;99.90
1888;DHT22;944;51.574;6.980;2023-04-20T01:03:48;7.70;99.90
1888;DHT22;944;51.574;6.980;2023-04-20T01:06:16;7.70;99.90
1888;DHT22;944;51.574;6.980;2023-04-20T01:08:46;7.70;99.90
1888;DHT22;944;51.574;6.980;2023-04-20T01:11:14;7.60;99.90
1888;DHT22;944;51.574;6.980;2023-04-20T01:13:46;7.50;99.90
1888;DHT22;944;51.574;6.980;2023-04-20T01:16:16;7.50;99.90
1888;DHT22;944;51.574;6.980;2023-04-20T01:18:44;7.50;99.90
1888;DHT22;944;51.574;6.980;2023-04-20T01:21:14;7.50;99.90
1888;DHT22;944;51.574;6.980;2023-04-20T01:23:44;7.50;99.90
1888;DHT22;944;51.574;6.980;2023-04-20T01:26:14;7.50;99.90
1888;DHT22;944;51.574;6.980;2023-04-20T01:28:42;7.50;99.90
1888;DHT22;944;51.574;6.980;2023-04-20T01:31:10;7.50;99.90
1888;DHT22;944;51.574;6.980;2023-04-20T01:33:38;7.60;99.90
1888;DHT22;944;51.574;6.980;2023-04-20T01:36:07;7.50;99.90
1888;DHT22;944;51.574;6.980;2023-04-20T01:38:35;7.50;99.90
1888;DHT22;944;51.574;6.980;2023-04-20T01:41:06;7.60;99.90
1888;DHT22;944;51.574;6.980;2023-04-20T01:43:35;7.60;99.90
1888;DHT22;944;51.574;6.980;2023-04-20T01:46:05;7.60;99.90
1888;DHT22;944;51.574;6.980;2023-04-20T01:48:32;7.60;99.90
1888;DHT22;944;51.574;6.980;2023-04-20T01:51:00;7.70;99.90
1888;DHT22;944;51.574;6.980;2023-04-20T01:53:27;7.60;99.90
1888;DHT22;944;51.574;6.980;2023-04-20T01:55:59;7.70;99.90
1888;DHT22;944;51.574;6.980;2023-04-20T01:58:28;7.70;99.90
1888;DHT22;944;51.574;6.980;2023-04-20T02:00:55;7.70;99.90
1888;DHT22;944;51.574;6.980;2023-04-20T02:03:22;7.60;99.90
1888;DHT22;944;51.574;6.980;2023-04-20T02:05:50;7.60;99.90
1888;DHT22;944;51.574;6.980;2023-04-20T02:08:17;7.60;99.90
1888;DHT22;944;51.574;6.980;2023-04-20T02:10:44;7.60;99.90
1888;DHT22;944;51.574;6.980;2023-04-20T02:13:11;7.60;99.90
1888;DHT22;944;51.574;6.980;2023-04-20T02:15:39;7.60;99.90
1888;DHT22;944;51.574;6.980;2023-04-20T02:18:08;7.60;99.90
1888;DHT22;944;51.574;6.980;2023-04-20T02:20:36;7.50;99.90
1888;DHT22;944;51.574;6.980;2023-04-20T02:23:03;7.50;99.90
1888;DHT22;944;51.574;6.980;2023-04-20T02:25:33;7.60;99.90
1888;DHT22;944;51.574;6.980;2023-04-20T02:28:01;7.50;99.90
1888;DHT22;944;51.574;6.980;2023-04-20T02:30:36;7.50;99.90
1888;DHT22;944;51.574;6.980;2023-04-20T02:33:04;7.50;99.90
1888;DHT22;944;51.574;6.980;2023-04-20T02:35:32;7.40;99.90
1888;DHT22;944;51.574;6.980;2023-04-20T02:37:59;7.30;99.90
1888;DHT22;944;51.574;6.980;2023-04-20T02:40:28;7.30;99.90
1888;DHT22;944;51.574;6.980;2023-04-20T02:42:55;7.30;99.90
1888;DHT22;944;51.574;6.980;2023-04-20T02:45:22;7.30;99.90
1888;DHT22;944;51.574;6.980;2023-04-20T02:48:01;7.20;99.90
1888;DHT22;944;51.574;6.980;2023-04-20T02:50:33;7.20;99.90
1888;DHT22;944;51.574;6.980;2023-04-20T02:53:02;7.20;99.90
1888;DHT22;944;51.574;6.980;2023-04-20T02:55:29;7.20;99.90
1888;DHT22;944;51.574;6.980;2023-04-20T02:57:56;7.30;99.90
1888;DHT22;944;51.574;6.980;2023-04-20T03:00:31;7.30;99.90
1888;DHT22;944;51.574;6.980;2023-04-20T03:03:00;7.20;99.90
1888;DHT22;944;51.574;6.980;2023-04-20T03:05:27;7.20;99.90
1888;DHT22;944;51.574;6.980;2023-04-20T03:07:56;7.30;99.90
1888;DHT22;944;51.574;6.980;2023-04-20T03:10:25;7.30;99.90
1888;DHT22;944;51.574;6.980;2023-04-20T03:12:52;7.30;99.90
1888;DHT22;944;51.574;6.980;2023-04-20T03:15:19;7.20;99.90
1888;DHT22;944;51.574;6.980;2023-04-20T03:17:47;7.20;99.90
1888;DHT22;944;51.574;6.980;2023-04-20T03:20:14;7.30;99.90
1888;DHT22;944;51.574;6.980;2023-04-20T03:22:44;7.20;99.90
1888;DHT22;944;51.574;6.980;2023-04-20T03:25:15;7.30;99.90
1888;DHT22;944;51.574;6.980;2023-04-20T03:27:44;7.30;99.90
1888;DHT22;944;51.574;6.980;2023-04-20T03:30:17;7.30;99.90
1888;DHT22;944;51.574;6.980;2023-04-20T03:32:44;7.30;99.90
1888;DHT22;944;51.574;6.980;2023-04-20T03:35:11;7.30;99.90
1888;DHT22;944;51.574;6.980;2023-04-20T03:37:41;7.30;99.90
1888;DHT22;944;51.574;6.980;2023-04-20T03:40:09;7.30;99.90
1888;DHT22;944;51.574;6.980;2023-04-20T03:42:42;7.30;99.90
1888;DHT22;944;51.574;6.980;2023-04-20T03:45:13;7.30;99.90
1888;DHT22;944;51.574;6.980;2023-04-20T03:47:40;7.30;99.90
1888;DHT22;944;51.574;6.980;2023-04-20T03:50:08;7.30;99.90
1888;DHT22;944;51.574;6.980;2023-04-20T03:52:35;7.20;99.90
1888;DHT22;944;51.574;6.980;2023-04-20T03:55:06;7.20;99.90
1888;DHT22;944;51.574;6.980;2023-04-20T03:57:35;7.20;99.90
1888;DHT22;944;51.574;6.980;2023-04-20T04:00:03;7.20;99.90
1888;DHT22;944;51.574;6.980;2023-04-20T04:02:31;7.20;99.90
1888;DHT22;944;51.574;6.980;2023-04-20T04:04:58;7.20;99.90
1888;DHT22;944;51.574;6.980;2023-04-20T04:07:25;7.20;99.90
1888;DHT22;944;51.574;6.980;2023-04-20T04:09:53;7.20;99.90
1888;DHT22;944;51.574;6.980;2023-04-20T04:12:21;7.20;99.90
1888;DHT22;944;51.574;6.980;2023-04-20T04:14:51;7.20;99.90
1888;DHT22;944;51.574;6.980;2023-04-20T04:17:18;7.10;99.90
1888;DHT22;944;51.574;6.980;2023-04-20T04:19:50;7.10;99.90
1888;DHT22;944;51.574;6.980;2023-04-20T04:22:17;7.10;99.90
1888;DHT22;944;51.574;6.980;2023-04-20T04:24:44;7.10;99.90
1888;DHT22;944;51.574;6.980;2023-04-20T04:27:19;7.00;99.90
1888;DHT22;944;51.574;6.980;2023-04-20T06:00:19;6.70;99.90
1888;DHT22;944;51.574;6.980;2023-04-20T06:06:37;6.70;99.90
1888;DHT22;944;51.574;6.980;2023-04-20T06:16:24;6.80;99.90
1888;DHT22;944;51.574;6.980;2023-04-20T06:19:11;6.90;99.90
1888;DHT22;944;51.574;6.980;2023-04-20T06:22:13;6.90;99.90
1888;DHT22;944;51.574;6.980;2023-04-20T06:24:55;7.00;99.90
1888;DHT22;944;51.574;6.980;2023-04-20T06:29:13;6.90;99.90
1888;DHT22;944;51.574;6.980;2023-04-20T06:35:02;6.70;99.90
1888;DHT22;944;51.574;6.980;2023-04-20T06:37:37;6.60;99.90
1888;DHT22;944;51.574;6.980;2023-04-20T06:40:07;6.30;99.90
1888;DHT22;944;51.574;6.980;2023-04-20T06:50:01;6.50;99.90
1888;DHT22;944;51.574;6.980;2023-04-20T06:52:53;6.50;99.90
1888;DHT22;944;51.574;6.980;2023-04-20T06:55:44;6.50;99.90
1888;DHT22;944;51.574;6.980;2023-04-20T08:26:25;7.80;99.90
1888;DHT22;944;51.574;6.980;2023-04-20T08:28:53;7.50;99.90
1888;DHT22;944;51.574;6.980;2023-04-20T08:31:30;7.60;99.90
1888;DHT22;944;51.574;6.980;2023-04-20T08:37:59;7.70;99.90
1888;DHT22;944;51.574;6.980;2023-04-20T08:40:58;7.60;99.90
1888;DHT22;944;51.574;6.980;2023-04-20T08:43:35;7.70;99.90
1888;DHT22;944;51.574;6.980;2023-04-20T08:46:06;7.80;99.90
1888;DHT22;944;51.574;6.980;2023-04-20T08:48:41;7.60;99.90
1888;DHT22;944;51.574;6.980;2023-04-20T08:51:14;7.80;99.90
1888;DHT22;944;51.574;6.980;2023-04-20T08:54:05;8.00;99.90
1888;DHT22;944;51.574;6.980;2023-04-20T08:56:45;7.70;99.90
1888;DHT22;944;51.574;6.980;2023-04-20T09:02:51;7.70;99.90
1888;DHT22;944;51.574;6.980;2023-04-20T09:42:11;7.70;99.90
1888;DHT22;944;51.574;6.980;2023-04-20T11:35:00;9.30;99.90
1888;DHT22;944;51.574;6.980;2023-04-20T11:42:10;9.60;99.90
1888;DHT22;944;51.574;6.980;2023-04-20T14:29:46;11.10;99.90
1888;DHT22;944;51.574;6.980;2023-04-20T14:36:21;11.90;99.90
1888;DHT22;944;51.574;6.980;2023-04-20T14:39:27;11.90;99.90
1888;DHT22;944;51.574;6.980;2023-04-20T14:42:10;11.90;99.90
1888;DHT22;944;51.574;6.980;2023-04-20T14:44:38;11.80;99.90
1888;DHT22;944;51.574;6.980;2023-04-20T14:47:16;11.80;99.90
1888;DHT22;944;51.574;6.980;2023-04-20T14:49:48;11.90;99.90
1888;DHT22;944;51.574;6.980;2023-04-20T14:52:23;12.00;99.90
1888;DHT22;944;51.574;6.980;2023-04-20T14:54:52;11.90;99.90
1888;DHT22;944;51.574;6.980;2023-04-20T14:57:31;11.70;99.90
1888;DHT22;944;51.574;6.980;2023-04-20T15:00:04;11.60;99.90
1888;DHT22;944;51.574;6.980;2023-04-20T15:02:35;11.60;99.90
1888;DHT22;944;51.574;6.980;2023-04-20T15:05:05;11.60;99.90
1888;DHT22;944;51.574;6.980;2023-04-20T15:07:36;11.60;99.90
1888;DHT22;944;51.574;6.980;2023-04-20T15:10:10;11.80;99.90
1888;DHT22;944;51.574;6.980;2023-04-20T15:12:37;11.80;99.90
1888;DHT22;944;51.574;6.980;2023-04-20T15:15:05;11.90;99.90
1888;DHT22;944;51.574;6.980;2023-04-20T15:17:35;11.90;99.90
1888;DHT22;944;51.574;6.980;2023-04-20T15:20:03;11.90;99.90
1888;DHT22;944;51.574;6.980;2023-04-20T15:22:34;11.70;99.90
1888;DHT22;944;51.574;6.980;2023-04-20T15:25:03;11.60;99.90
1888;DHT22;944;51.574;6.980;2023-04-20T15:27:33;11.50;99.90
1888;DHT22;944;51.574;6.980;2023-04-20T15:33:40;11.40;99.90
1888;DHT22;944;51.574;6.980;2023-04-20T15:36:08;11.40;99.90
1888;DHT22;944;51.574;6.980;2023-04-20T15:38:55;11.10;99.90
1888;DHT22;944;51.574;6.980;2023-04-20T15:41:22;11.10;99.90
1888;DHT22;944;51.574;6.980;2023-04-20T15:43:50;11.10;99.90
1888;DHT22;944;51.574;6.980;2023-04-20T15:46:17;11.20;99.90
1888;DHT22;944;51.574;6.980;2023-04-20T15:48:48;11.40;99.90
1888;DHT22;944;51.574;6.980;2023-04-20T15:51:19;11.60;99.90
1888;DHT22;944;51.574;6.980;2023-04-20T15:53:47;11.80;99.90
1888;DHT22;944;51.574;6.980;2023-04-20T15:56:15;11.90;99.90
1888;DHT22;944;51.574;6.980;2023-04-20T15:58:43;11.90;99.90
1888;DHT22;944;51.574;6.980;2023-04-20T16:01:12;11.70;99.90
1888;DHT22;944;51.574;6.980;2023-04-20T16:03:39;11.50;99.90
1888;DHT22;944;51.574;6.980;2023-04-20T16:06:06;11.30;99.90
1888;DHT22;944;51.574;6.980;2023-04-20T16:12:15;11.20;99.90
1888;DHT22;944;51.574;6.980;2023-04-20T16:14:42;11.30;99.90
1888;DHT22;944;51.574;6.980;2023-04-20T16:17:12;11.00;99.90
1888;DHT22;944;51.574;6.980;2023-04-20T16:19:40;11.10;99.90
1888;DHT22;944;51.574;6.980;2023-04-20T16:22:13;10.90;99.90
1888;DHT22;944;51.574;6.980;2023-04-20T16:24:47;10.90;99.90
1888;DHT22;944;51.574;6.980;2023-04-20T16:36:27;11.00;99.90
1888;DHT22;944;51.574;6.980;2023-04-20T16:42:40;11.00;99.90
1888;DHT22;944;51.574;6.980;2023-04-20T16:45:09;11.10;99.90
1888;DHT22;944;51.574;6.980;2023-04-20T16:47:55;11.20;99.90
1888;DHT22;944;51.574;6.980;2023-04-20T16:57:37;11.30;99.90
1888;DHT22;944;51.574;6.980;2023-04-20T17:00:30;11.30;99.90
1888;DHT22;944;51.574;6.980;2023-04-20T17:02:58;11.30;99.90
1888;DHT22;944;51.574;6.980;2023-04-20T17:05:38;11.30;99.90
1888;DHT22;944;51.574;6.980;2023-04-20T17:08:15;11.30;99.90
1888;DHT22;944;51.574;6.980;2023-04-20T17:10:48;11.20;99.90
1888;DHT22;944;51.574;6.980;2023-04-20T17:13:15;11.00;99.90
1888;DHT22;944;51.574;6.980;2023-04-20T17:15:42;10.90;99.90
1888;DHT22;944;51.574;6.980;2023-04-20T17:18:11;10.90;99.90
1888;DHT22;944;51.574;6.980;2023-04-20T17:20:39;10.90;99.90
1888;DHT22;944;51.574;6.980;2023-04-20T17:23:06;10.90;99.90
1888;DHT22;944;51.574;6.980;2023-04-20T17:25:36;10.90;99.90
1888;DHT22;944;51.574;6.980;2023-04-20T17:28:04;10.70;99.90
1888;DHT22;944;51.574;6.980;2023-04-20T17:30:32;10.40;99.90
1888;DHT22;944;51.574;6.980;2023-04-20T17:32:59;10.20;99.90
1888;DHT22;944;51.574;6.980;2023-04-20T17:35:26;10.00;99.90
1888;DHT22;944;51.574;6.980;2023-04-20T17:37:55;9.90;99.90
1888;DHT22;944;51.574;6.980;2023-04-20T17:40:24;9.80;99.90
1888;DHT22;944;51.574;6.980;2023-04-20T17:42:58;9.80;99.90
1888;DHT22;944;51.574;6.980;2023-04-20T17:45:32;9.60;99.90
1888;DHT22;944;51.574;6.980;2023-04-20T17:48:05;9.60;99.90
1888;DHT22;944;51.574;6.980;2023-04-20T17:50:35;9.50;99.90
1888;DHT22;944;51.574;6.980;2023-04-20T17:53:14;9.40;99.90
1888;DHT22;944;51.574;6.980;2023-04-20T17:55:41;9.40;99.90
1888;DHT22;944;51.574;6.980;2023-04-20T17:58:10;9.30;99.90
1888;DHT22;944;51.574;6.980;2023-04-20T18:00:42;9.30;99.90
1888;DHT22;944;51.574;6.980;2023-04-20T18:03:18;9.10;99.90
1888;DHT22;944;51.574;6.980;2023-04-20T18:09:43;9.00;99.90
1888;DHT22;944;51.574;6.980;2023-04-20T18:12:27;9.10;99.90
1888;DHT22;944;51.574;6.980;2023-04-20T18:14:57;9.00;99.90
1888;DHT22;944;51.574;6.980;2023-04-20T18:17:28;9.00;99.90
1888;DHT22;944;51.574;6.980;2023-04-20T18:20:07;8.90;99.90
1888;DHT22;944;51.574;6.980;2023-04-20T18:22:37;8.70;99.90
1888;DHT22;944;51.574;6.980;2023-04-20T18:25:08;8.80;99.90
1888;DHT22;944;51.574;6.980;2023-04-20T18:27:37;8.60;99.90
1888;DHT22;944;51.574;6.980;2023-04-20T18:30:21;8.70;99.90
1888;DHT22;944;51.574;6.980;2023-04-20T18:32:58;8.70;99.90
1888;DHT22;944;51.574;6.980;2023-04-20T18:35:27;8.80;99.90
1888;DHT22;944;51.574;6.980;2023-04-20T18:37:56;8.70;99.90
1888;DHT22;944;51.574;6.980;2023-04-20T18:40:23;8.50;99.90
1888;DHT22;944;51.574;6.980;2023-04-20T18:42:52;8.30;99.90
1888;DHT22;944;51.574;6.980;2023-04-20T18:45:20;8.30;99.90
1888;DHT22;944;51.574;6.980;2023-04-20T18:47:53;8.30;99.90
1888;DHT22;944;51.574;6.980;2023-04-20T18:50:23;8.20;99.90
1888;DHT22;944;51.574;6.980;2023-04-20T18:52:51;8.20;99.90
1888;DHT22;944;51.574;6.980;2023-04-20T18:55:21;8.20;99.90
1888;DHT22;944;51.574;6.980;2023-04-20T18:57:50;8.10;99.90
1888;DHT22;944;51.574;6.980;2023-04-20T19:00:17;8.20;99.90
1888;DHT22;944;51.574;6.980;2023-04-20T19:02:45;8.10;99.90
1888;DHT22;944;51.574;6.980;2023-04-20T19:05:25;8.20;99.90
1888;DHT22;944;51.574;6.980;2023-04-20T19:07:52;8.20;99.90
1888;DHT22;944;51.574;6.980;2023-04-20T19:10:20;8.20;99.90
1888;DHT22;944;51.574;6.980;2023-04-20T19:12:47;8.30;99.90
1888;DHT22;944;51.574;6.980;2023-04-20T19:15:14;8.30;99.90
1888;DHT22;944;51.574;6.980;2023-04-20T19:17:54;8.40;99.90
1888;DHT22;944;51.574;6.980;2023-04-20T19:20:23;8.40;99.90
1888;DHT22;944;51.574;6.980;2023-04-20T19:22:51;8.50;99.90
1888;DHT22;944;51.574;6.980;2023-04-20T19:25:20;8.50;99.90
1888;DHT22;944;51.574;6.980;2023-04-20T19:27:47;8.50;99.90
1888;DHT22;944;51.574;6.980;2023-04-20T19:30:39;8.40;99.90
1888;DHT22;944;51.574;6.980;2023-04-20T19:33:06;8.40;99.90
1888;DHT22;944;51.574;6.980;2023-04-20T19:35:34;8.40;99.90
1888;DHT22;944;51.574;6.980;2023-04-20T19:38:01;8.40;99.90
1888;DHT22;944;51.574;6.980;2023-04-20T19:40:33;8.30;99.90
1888;DHT22;944;51.574;6.980;2023-04-20T19:43:00;8.50;99.90
1888;DHT22;944;51.574;6.980;2023-04-20T19:45:30;8.50;99.90
1888;DHT22;944;51.574;6.980;2023-04-20T19:48:15;8.50;99.90
1888;DHT22;944;51.574;6.980;2023-04-20T19:50:46;8.50;99.90
1888;DHT22;944;51.574;6.980;2023-04-20T19:53:13;8.50;99.90
1888;DHT22;944;51.574;6.980;2023-04-20T19:55:40;8.40;99.90
1888;DHT22;944;51.574;6.980;2023-04-20T19:58:08;8.50;99.90
1888;DHT22;944;51.574;6.980;2023-04-20T20:00:35;8.60;99.90
1888;DHT22;944;51.574;6.980;2023-04-20T20:03:04;8.40;99.90
1888;DHT22;944;51.574;6.980;2023-04-20T20:05:32;8.40;99.90
1888;DHT22;944;51.574;6.980;2023-04-20T20:08:00;8.50;99.90
1888;DHT22;944;51.574;6.980;2023-04-20T20:10:28;8.40;99.90
1888;DHT22;944;51.574;6.980;2023-04-20T20:12:55;8.30;99.90
1888;DHT22;944;51.574;6.980;2023-04-20T20:15:25;8.50;99.90
1888;DHT22;944;51.574;6.980;2023-04-20T20:17:53;8.30;99.90
1888;DHT22;944;51.574;6.980;2023-04-20T20:20:22;8.40;99.90
1888;DHT22;944;51.574;6.980;2023-04-20T20:22:51;8.40;99.90
1888;DHT22;944;51.574;6.980;2023-04-20T20:25:19;8.40;99.90
1888;DHT22;944;51.574;6.980;2023-04-20T20:27:46;8.30;99.90
1888;DHT22;944;51.574;6.980;2023-04-20T20:30:17;8.40;99.90
1888;DHT22;944;51.574;6.980;2023-04-20T20:32:44;8.30;99.90
1888;DHT22;944;51.574;6.980;2023-04-20T20:35:11;8.30;99.90
1888;DHT22;944;51.574;6.980;2023-04-20T20:37:41;8.30;99.90
1888;DHT22;944;51.574;6.980;2023-04-20T20:40:10;8.30;99.90
1888;DHT22;944;51.574;6.980;2023-04-20T20:42:41;8.30;99.90
1888;DHT22;944;51.574;6.980;2023-04-20T20:45:10;8.20;99.90
1888;DHT22;944;51.574;6.980;2023-04-20T20:47:39;8.20;99.90
1888;DHT22;944;51.574;6.980;2023-04-20T20:50:07;8.30;99.90
1888;DHT22;944;51.574;6.980;2023-04-20T20:52:34;8.20;99.90
1888;DHT22;944;51.574;6.980;2023-04-20T20:55:01;8.20;99.90
1888;DHT22;944;51.574;6.980;2023-04-20T20:57:29;8.20;99.90
1888;DHT22;944;51.574;6.980;2023-04-20T20:59:58;8.10;99.90
1888;DHT22;944;51.574;6.980;2023-04-20T21:02:25;8.10;99.90
1888;DHT22;944;51.574;6.980;2023-04-20T21:04:52;8.10;99.90
1888;DHT22;944;51.574;6.980;2023-04-20T21:07:19;8.10;99.90
1888;DHT22;944;51.574;6.980;2023-04-20T21:09:46;8.10;99.90
1888;DHT22;944;51.574;6.980;2023-04-20T21:12:13;8.00;99.90
1888;DHT22;944;51.574;6.980;2023-04-20T21:14:40;8.10;99.90
1888;DHT22;944;51.574;6.980;2023-04-20T21:17:09;8.10;99.90
1888;DHT22;944;51.574;6.980;2023-04-20T21:19:36;8.10;99.90
1888;DHT22;944;51.574;6.980;2023-04-20T21:22:03;8.10;99.90
1888;DHT22;944;51.574;6.980;2023-04-20T21:24:30;8.10;99.90
1888;DHT22;944;51.574;6.980;2023-04-20T21:26:57;8.00;99.90
1888;DHT22;944;51.574;6.980;2023-04-20T21:29:24;8.10;99.90
1888;DHT22;944;51.574;6.980;2023-04-20T21:31:51;8.20;99.90
1888;DHT22;944;51.574;6.980;2023-04-20T21:34:20;8.10;99.90
1888;DHT22;944;51.574;6.980;2023-04-20T21:36:48;8.10;99.90
1888;DHT22;944;51.574;6.980;2023-04-20T21:39:15;8.10;99.90
1888;DHT22;944;51.574;6.980;2023-04-20T21:41:42;8.20;99.90
1888;DHT22;944;51.574;6.980;2023-04-20T21:44:09;8.20;99.90
1888;DHT22;944;51.574;6.980;2023-04-20T21:46:36;8.10;99.90
1888;DHT22;944;51.574;6.980;2023-04-20T21:49:03;8.10;99.90
1888;DHT22;944;51.574;6.980;2023-04-20T21:51:32;8.00;99.90
1888;DHT22;944;51.574;6.980;2023-04-20T21:53:58;7.90;99.90
1888;DHT22;944;51.574;6.980;2023-04-20T21:56:25;7.90;99.90
1888;DHT22;944;51.574;6.980;2023-04-20T21:58:53;7.90;99.90
1888;DHT22;944;51.574;6.980;2023-04-20T22:01:22;8.00;99.90
1888;DHT22;944;51.574;6.980;2023-04-20T22:03:49;8.00;99.90
1888;DHT22;944;51.574;6.980;2023-04-20T22:06:16;7.80;99.90
1888;DHT22;944;51.574;6.980;2023-04-20T22:15:27;7.80;99.90
1888;DHT22;944;51.574;6.980;2023-04-20T22:17:54;7.80;99.90
1888;DHT22;944;51.574;6.980;2023-04-20T22:20:25;7.80;99.90
1888;DHT22;944;51.574;6.980;2023-04-20T22:22:52;7.80;99.90
1888;DHT22;944;51.574;6.980;2023-04-20T22:25:20;7.80;99.90
1888;DHT22;944;51.574;6.980;2023-04-20T22:27:51;7.80;99.90
1888;DHT22;944;51.574;6.980;2023-04-20T22:30:18;7.80;99.90
1888;DHT22;944;51.574;6.980;2023-04-20T22:32:45;7.70;99.90
1888;DHT22;944;51.574;6.980;2023-04-20T22:35:12;7.70;99.90
1888;DHT22;944;51.574;6.980;2023-04-20T22:37:39;7.70;99.90
1888;DHT22;944;51.574;6.980;2023-04-20T22:40:09;7.80;99.90
1888;DHT22;944;51.574;6.980;2023-04-20T22:42:36;7.80;99.90
1888;DHT22;944;51.574;6.980;2023-04-20T22:45:06;7.80;99.90
1888;DHT22;944;51.574;6.980;2023-04-20T22:47:35;7.80;99.90
1888;DHT22;944;51.574;6.980;2023-04-20T22:50:05;7.80;99.90
1888;DHT22;944;51.574;6.980;2023-04-20T22:52:34;7.90;99.90
1888;DHT22;944;51.574;6.980;2023-04-20T22:55:03;7.90;99.90
1888;DHT22;944;51.574;6.980;2023-04-20T22:57:30;7.90;99.90
1888;DHT22;944;51.574;6.980;2023-04-20T22:59:57;7.90;99.90
1888;DHT22;944;51.574;6.980;2023-04-20T23:02:26;7.90;99.90
1888;DHT22;944;51.574;6.980;2023-04-20T23:04:53;7.80;99.90
1888;DHT22;944;51.574;6.980;2023-04-20T23:07:20;7.80;99.90
1888;DHT22;944;51.574;6.980;2023-04-20T23:09:47;7.80;99.90
1888;DHT22;944;51.574;6.980;2023-04-20T23:12:15;7.80;99.90
1888;DHT22;944;51.574;6.980;2023-04-20T23:14:42;7.80;99.90
1888;DHT22;944;51.574;6.980;2023-04-20T23:17:09;7.80;99.90
1888;DHT22;944;51.574;6.980;2023-04-20T23:19:40;7.70;99.90
1888;DHT22;944;51.574;6.980;2023-04-20T23:22:07;7.90;99.90
1888;DHT22;944;51.574;6.980;2023-04-20T23:24:34;7.90;99.90
1888;DHT22;944;51.574;6.980;2023-04-20T23:27:01;7.80;99.90
1888;DHT22;944;51.574;6.980;2023-04-20T23:29:29;7.80;99.90
1888;DHT22;944;51.574;6.980;2023-04-20T23:31:57;7.80;99.90
1888;DHT22;944;51.574;6.980;2023-04-20T23:34:25;7.90;99.90
1888;DHT22;944;51.574;6.980;2023-04-20T23:36:55;7.90;99.90
1888;DHT22;944;51.574;6.980;2023-04-20T23:39:22;7.70;99.90
1888;DHT22;944;51.574;6.980;2023-04-20T23:41:51;7.70;99.90
1888;DHT22;944;51.574;6.980;2023-04-20T23:44:18;7.60;99.90
1888;DHT22;944;51.574;6.980;2023-04-20T23:46:45;7.60;99.90
1888;DHT22;944;51.574;6.980;2023-04-20T23:49:12;7.60;99.90
1888;DHT22;944;51.574;6.980;2023-04-20T23:51:51;7.40;99.90
1888;DHT22;944;51.574;6.980;2023-04-20T23:54:39;7.50;99.90
1888;DHT22;944;51.574;6.980;2023-04-20T23:57:26;7.30;99.90
